createdAt,value
2019-03-20T00:01:08.202Z,21.80
2019-03-20T00:03:37.191Z,22.60
2019-03-20T00:06:06.147Z,21.40
2019-03-20T00:08:35.097Z,22.50
2019-03-20T00:11:03.912Z,21.97
2019-03-20T00:13:32.765Z,22.90
2019-03-20T00:16:01.674Z,22.80
2019-03-20T00:18:30.950Z,22.00
2019-03-20T00:20:59.915Z,22.77
2019-03-20T00:23:29.788Z,22.40
2019-03-20T00:25:58.611Z,23.03
2019-03-20T00:28:27.531Z,22.77
2019-03-20T00:30:56.428Z,22.13
2019-03-20T00:33:25.413Z,22.50
2019-03-20T00:35:54.453Z,22.03
2019-03-20T00:38:24.079Z,22.67
2019-03-20T00:40:52.946Z,23.23
2019-03-20T00:43:21.795Z,22.00
2019-03-20T00:45:50.559Z,22.23
2019-03-20T00:48:20.045Z,22.00
2019-03-20T00:50:48.883Z,22.40
2019-03-20T00:53:17.626Z,22.00
2019-03-20T00:55:46.534Z,21.70
2019-03-20T00:58:15.459Z,23.10
2019-03-20T01:00:44.227Z,21.40
2019-03-20T01:03:13.202Z,22.13
2019-03-20T01:05:42.259Z,22.23
2019-03-20T01:08:11.099Z,22.00
2019-03-20T01:10:40.261Z,22.10
2019-03-20T01:13:09.382Z,22.03
2019-03-20T01:15:38.339Z,22.00
2019-03-20T01:18:07.092Z,22.23
2019-03-20T01:20:35.994Z,22.03
2019-03-20T01:23:05.152Z,23.30
2019-03-20T01:25:35.138Z,22.00
2019-03-20T01:28:04.970Z,22.40
2019-03-20T01:30:35.249Z,21.53
2019-03-20T01:33:05.964Z,21.47
2019-03-20T01:35:35.146Z,21.70
2019-03-20T01:38:04.008Z,21.07
2019-03-20T01:40:32.900Z,21.50
2019-03-20T01:43:02.121Z,22.50
2019-03-20T01:45:30.930Z,22.70
2019-03-20T01:47:59.856Z,21.10
2019-03-20T01:50:28.892Z,21.90
2019-03-20T01:52:58.076Z,20.87
2019-03-20T01:55:26.951Z,22.13
2019-03-20T01:57:56.264Z,22.07
2019-03-20T02:00:25.336Z,21.23
2019-03-20T02:02:54.065Z,22.23
2019-03-20T02:05:23.236Z,21.53
2019-03-20T02:07:52.629Z,22.23
2019-03-20T02:10:21.518Z,21.50
2019-03-20T02:12:50.331Z,21.90
2019-03-20T02:15:19.383Z,21.30
2019-03-20T02:17:48.376Z,22.03
2019-03-20T02:20:17.609Z,21.90
2019-03-20T02:22:46.788Z,22.47
2019-03-20T02:25:17.055Z,22.87
2019-03-20T02:27:46.250Z,22.40
2019-03-20T02:30:16.527Z,21.53
2019-03-20T02:32:45.666Z,21.80
2019-03-20T02:35:15.401Z,21.83
2019-03-20T02:37:44.279Z,21.50
2019-03-20T02:40:13.428Z,21.87
2019-03-20T02:42:42.313Z,23.70
2019-03-20T02:45:13.177Z,21.60
2019-03-20T02:47:42.296Z,21.17
2019-03-20T02:50:11.600Z,22.17
2019-03-20T02:52:40.617Z,22.30
2019-03-20T02:55:10.037Z,23.65
2019-03-20T02:57:39.084Z,21.83
2019-03-20T03:00:10.272Z,22.77
2019-03-20T03:02:39.201Z,21.05
2019-03-20T03:05:08.700Z,21.27
2019-03-20T03:07:37.633Z,22.20
2019-03-20T03:10:07.307Z,22.20
2019-03-20T03:12:36.213Z,21.50
2019-03-20T03:15:06.012Z,21.37
2019-03-20T03:17:34.919Z,20.95
2019-03-20T03:20:04.383Z,21.57
2019-03-20T03:22:33.304Z,20.92
2019-03-20T03:25:02.125Z,21.70
2019-03-20T03:27:31.360Z,20.37
2019-03-20T03:30:00.568Z,20.82
2019-03-20T03:32:29.738Z,20.62
2019-03-20T03:34:58.957Z,20.95
2019-03-20T03:37:27.877Z,19.05
2019-03-20T03:39:56.684Z,20.05
2019-03-20T03:42:25.916Z,22.00
2019-03-20T03:44:54.702Z,20.35
2019-03-20T03:47:23.610Z,20.02
2019-03-20T03:49:52.602Z,18.77
2019-03-20T03:52:21.440Z,19.45
2019-03-20T03:54:50.268Z,19.48
2019-03-20T03:57:19.280Z,19.75
2019-03-20T03:59:49.231Z,19.55
2019-03-20T04:02:18.126Z,20.15
2019-03-20T04:04:47.140Z,19.02
2019-03-20T04:07:16.304Z,19.30
2019-03-20T04:09:45.132Z,20.77
2019-03-20T04:12:14.005Z,19.92
2019-03-20T04:14:42.862Z,19.45
2019-03-20T04:17:27.435Z,18.55
2019-03-20T04:19:56.269Z,20.65
2019-03-20T04:22:25.198Z,19.73
2019-03-20T04:24:53.972Z,19.57
2019-03-20T04:27:22.898Z,18.57
2019-03-20T04:29:52.048Z,18.27
2019-03-20T04:32:21.730Z,19.10
2019-03-20T04:34:50.551Z,17.05
2019-03-20T04:37:19.429Z,18.37
2019-03-20T04:39:48.347Z,16.27
2019-03-20T04:42:17.159Z,16.48
2019-03-20T04:44:45.903Z,16.42
2019-03-20T04:47:14.795Z,17.62
2019-03-20T04:49:43.627Z,17.10
2019-03-20T04:52:12.384Z,17.20
2019-03-20T04:54:41.174Z,18.23
2019-03-20T04:57:10.008Z,17.12
2019-03-20T04:59:38.832Z,16.75
2019-03-20T05:02:07.651Z,16.80
2019-03-20T05:04:36.452Z,16.45
2019-03-20T05:07:05.742Z,16.42
2019-03-20T05:09:34.495Z,17.20
2019-03-20T05:12:03.586Z,18.27
2019-03-20T05:14:32.964Z,17.95
2019-03-20T05:17:01.948Z,17.17
2019-03-20T05:19:31.288Z,16.82
2019-03-20T05:22:00.139Z,17.40
2019-03-20T05:24:28.874Z,16.85
2019-03-20T05:26:57.939Z,16.90
2019-03-20T05:29:26.683Z,18.27
2019-03-20T05:31:55.770Z,17.25
2019-03-20T05:34:24.543Z,17.42
2019-03-20T05:36:53.459Z,17.67
2019-03-20T05:39:22.321Z,17.25
2019-03-20T05:41:51.533Z,17.07
2019-03-20T05:44:20.736Z,18.25
2019-03-20T05:46:50.056Z,19.50
2019-03-20T05:49:18.828Z,19.50
2019-03-20T05:51:47.643Z,17.10
2019-03-20T05:54:16.621Z,17.32
2019-03-20T05:57:04.761Z,17.70
2019-03-20T05:59:33.669Z,17.95
2019-03-20T06:02:02.572Z,17.85
2019-03-20T06:04:31.485Z,18.00
2019-03-20T06:07:00.412Z,18.02
2019-03-20T06:09:29.579Z,18.23
2019-03-20T06:11:58.465Z,19.25
2019-03-20T06:14:27.299Z,18.45
2019-03-20T06:16:56.210Z,19.85
2019-03-20T06:19:25.015Z,19.52
2019-03-20T06:21:53.964Z,19.05
2019-03-20T06:24:22.859Z,20.20
2019-03-20T06:26:51.772Z,18.67
2019-03-20T06:29:20.547Z,19.25
2019-03-20T06:31:50.381Z,19.67
2019-03-20T06:34:19.363Z,20.27
2019-03-20T06:36:48.188Z,18.70
2019-03-20T06:39:17.019Z,18.45
2019-03-20T06:41:46.371Z,19.23
2019-03-20T06:44:15.218Z,18.45
2019-03-20T06:46:44.049Z,19.05
2019-03-20T06:49:13.277Z,19.75
2019-03-20T06:51:42.440Z,19.65
2019-03-20T06:54:11.457Z,21.10
2019-03-20T06:56:40.275Z,20.27
2019-03-20T06:59:50.317Z,19.45
2019-03-20T07:02:20.626Z,21.45
2019-03-20T07:05:30.144Z,21.55
2019-03-20T07:07:58.697Z,20.60
2019-03-20T07:11:04.941Z,20.07
2019-03-20T07:13:34.443Z,20.15
2019-03-20T07:16:03.929Z,22.17
2019-03-20T07:18:32.893Z,20.77
2019-03-20T07:21:02.297Z,21.95
2019-03-20T07:23:31.359Z,20.83
2019-03-20T07:26:00.229Z,20.80
2019-03-20T07:28:29.120Z,21.67
2019-03-20T07:30:57.961Z,22.53
2019-03-20T07:33:27.220Z,22.13
2019-03-20T07:35:56.116Z,21.40
2019-03-20T07:38:25.283Z,21.90
2019-03-20T07:40:54.415Z,22.87
2019-03-20T07:43:23.254Z,21.40
2019-03-20T07:45:52.488Z,22.07
2019-03-20T07:48:22.595Z,23.60
2019-03-20T07:50:52.029Z,22.70
2019-03-20T07:53:20.946Z,22.43
2019-03-20T07:55:50.127Z,22.40
2019-03-20T07:58:19.468Z,23.37
2019-03-20T08:00:49.028Z,23.10
2019-03-20T08:03:18.979Z,22.17
2019-03-20T08:05:48.902Z,22.83
2019-03-20T08:08:17.714Z,23.97
2019-03-20T08:10:47.142Z,22.50
2019-03-20T08:13:16.506Z,24.20
2019-03-20T08:15:45.651Z,24.37
2019-03-20T08:18:14.905Z,22.40
2019-03-20T08:20:43.707Z,23.07
2019-03-20T08:23:12.679Z,23.70
2019-03-20T08:25:41.472Z,24.73
2019-03-20T08:28:10.551Z,24.10
2019-03-20T08:30:39.808Z,25.03
2019-03-20T08:33:08.750Z,25.57
2019-03-20T08:35:37.872Z,25.27
2019-03-20T08:38:17.446Z,25.90
2019-03-20T08:40:37.948Z,25.47
2019-03-20T08:43:06.891Z,25.97
2019-03-20T08:45:35.966Z,25.97
2019-03-20T08:48:05.197Z,26.03
2019-03-20T08:50:34.060Z,25.83
2019-03-20T08:53:02.857Z,25.70
2019-03-20T08:55:31.768Z,27.53
2019-03-20T08:58:00.633Z,26.50
2019-03-20T09:00:29.743Z,26.10
2019-03-20T09:02:58.499Z,25.07
2019-03-20T09:05:27.753Z,25.53
2019-03-20T09:07:56.731Z,24.83
2019-03-20T09:10:25.986Z,29.87
2019-03-20T09:12:55.179Z,27.20
2019-03-20T09:15:24.936Z,28.40
2019-03-20T09:17:53.766Z,26.40
2019-03-20T09:20:22.800Z,25.23
2019-03-20T09:22:51.811Z,27.00
2019-03-20T09:25:20.615Z,26.23
2019-03-20T09:27:49.698Z,25.70
2019-03-20T09:30:19.901Z,27.67
2019-03-20T09:32:48.695Z,26.77
2019-03-20T09:35:17.564Z,26.23
2019-03-20T09:37:51.833Z,26.50
2019-03-20T09:40:17.514Z,28.60
2019-03-20T09:42:46.510Z,26.90
2019-03-20T09:45:16.153Z,26.57
2019-03-20T09:47:45.012Z,25.37
2019-03-20T09:50:15.790Z,27.87
2019-03-20T09:52:44.736Z,30.17
2019-03-20T09:55:14.596Z,28.97
2019-03-20T09:57:43.944Z,27.33
2019-03-20T10:00:23.125Z,26.00
2019-03-20T10:02:52.224Z,27.30
2019-03-20T10:05:21.358Z,26.03
2019-03-20T10:07:50.228Z,25.80
2019-03-20T10:10:20.593Z,25.90
2019-03-20T10:12:49.604Z,25.27
2019-03-20T10:15:19.434Z,26.63
2019-03-20T10:17:48.352Z,24.87
2019-03-20T10:20:18.710Z,27.00
2019-03-20T10:22:47.609Z,25.90
2019-03-20T10:25:17.166Z,25.83
2019-03-20T10:27:46.140Z,26.80
2019-03-20T10:30:17.355Z,26.10
2019-03-20T10:32:46.215Z,26.60
2019-03-20T10:35:15.283Z,25.20
2019-03-20T10:37:44.870Z,25.90
2019-03-20T10:40:15.765Z,24.60
2019-03-20T10:42:44.624Z,25.13
2019-03-20T10:45:14.012Z,27.20
2019-03-20T10:47:43.184Z,25.93
2019-03-20T10:50:14.327Z,26.30
2019-03-20T10:52:49.526Z,27.33
2019-03-20T10:55:20.526Z,27.00
2019-03-20T10:57:49.600Z,27.37
2019-03-20T11:00:19.568Z,26.90
2019-03-20T11:02:48.522Z,27.10
2019-03-20T11:05:18.765Z,26.70
2019-03-20T11:07:47.723Z,26.70
2019-03-20T11:10:20.294Z,28.30
2019-03-20T11:12:51.574Z,27.80
2019-03-20T11:15:20.756Z,28.27
2019-03-20T11:17:49.770Z,27.77
2019-03-20T11:20:18.881Z,26.80
2019-03-20T11:22:48.247Z,27.90
2019-03-20T11:25:18.390Z,26.50
2019-03-20T11:27:48.919Z,26.47
2019-03-20T11:30:22.315Z,26.60
2019-03-20T11:32:51.508Z,27.00
2019-03-20T11:35:20.762Z,26.50
2019-03-20T11:37:49.579Z,26.70
2019-03-20T11:40:20.696Z,26.10
2019-03-20T11:42:49.920Z,25.97
2019-03-20T11:45:18.915Z,28.10
2019-03-20T11:47:47.710Z,34.50
2019-03-20T11:50:19.682Z,26.80
2019-03-20T11:52:49.221Z,25.67
2019-03-20T11:55:18.077Z,27.53
2019-03-20T11:57:47.315Z,26.40
2019-03-20T12:00:17.215Z,27.00
2019-03-20T12:02:46.061Z,26.33
2019-03-20T12:05:15.289Z,25.60
2019-03-20T12:07:44.019Z,25.30
2019-03-20T12:10:15.845Z,25.23
2019-03-20T12:12:45.171Z,26.50
2019-03-20T12:15:14.301Z,27.13
2019-03-20T12:17:43.194Z,25.70
2019-03-20T12:20:15.118Z,26.70
2019-03-20T12:22:44.354Z,26.57
2019-03-20T12:25:21.303Z,25.90
2019-03-20T12:27:50.393Z,29.40
2019-03-20T12:30:21.060Z,30.10
2019-03-20T12:32:50.881Z,33.17
2019-03-20T12:35:19.887Z,25.30
2019-03-20T12:37:48.819Z,26.73
2019-03-20T12:40:25.581Z,26.77
2019-03-20T12:42:54.884Z,25.20
2019-03-20T12:45:26.201Z,25.87
2019-03-20T12:47:55.334Z,25.20
2019-03-20T12:50:24.631Z,25.50
2019-03-20T12:52:53.561Z,28.73
2019-03-20T12:55:22.589Z,27.20
2019-03-20T12:57:51.453Z,28.20
2019-03-20T13:00:21.383Z,26.77
2019-03-20T13:02:50.948Z,25.90
2019-03-20T13:05:20.179Z,26.60
2019-03-20T13:07:49.150Z,24.47
2019-03-20T13:10:19.202Z,27.00
2019-03-20T13:12:48.369Z,24.30
2019-03-20T13:15:22.016Z,27.43
2019-03-20T13:17:52.542Z,26.10
2019-03-20T13:20:21.731Z,25.73
2019-03-20T13:23:00.973Z,25.60
2019-03-20T13:25:30.478Z,25.90
2019-03-20T13:27:59.762Z,26.43
2019-03-20T13:30:40.922Z,26.83
2019-03-20T13:33:09.868Z,26.03
2019-03-20T13:35:38.864Z,25.60
2019-03-20T13:38:07.763Z,25.17
2019-03-20T13:40:36.729Z,26.20
2019-03-20T13:43:06.131Z,26.70
2019-03-20T13:45:35.043Z,25.40
2019-03-20T13:48:04.252Z,26.43
2019-03-20T13:50:33.216Z,25.43
2019-03-20T13:53:02.248Z,25.30
2019-03-20T13:55:31.566Z,24.90
2019-03-20T13:58:00.367Z,24.87
2019-03-20T14:00:29.107Z,25.23
2019-03-20T14:02:58.531Z,33.37
2019-03-20T14:05:27.611Z,27.20
2019-03-20T14:07:56.472Z,26.03
2019-03-20T14:10:25.912Z,26.40
2019-03-20T14:12:54.728Z,25.07
2019-03-20T14:15:23.708Z,25.10
2019-03-20T14:17:52.695Z,25.80
2019-03-20T14:20:22.970Z,24.80
2019-03-20T14:22:51.759Z,25.50
2019-03-20T14:25:20.792Z,24.90
2019-03-20T14:27:50.003Z,26.33
2019-03-20T14:30:21.231Z,26.10
2019-03-20T14:32:50.456Z,25.67
2019-03-20T14:35:20.040Z,25.40
2019-03-20T14:37:48.759Z,26.00
2019-03-20T14:40:19.450Z,25.30
2019-03-20T14:42:48.423Z,24.80
2019-03-20T14:45:17.309Z,25.30
2019-03-20T14:47:46.511Z,25.00
2019-03-20T14:50:17.380Z,25.37
2019-03-20T14:52:46.180Z,26.80
2019-03-20T14:55:15.169Z,25.93
2019-03-20T14:57:43.989Z,24.97
2019-03-20T15:00:32.373Z,25.00
2019-03-20T15:03:01.949Z,26.20
2019-03-20T15:05:31.802Z,25.37
2019-03-20T15:08:00.666Z,25.87
2019-03-20T15:10:30.610Z,25.33
2019-03-20T15:12:59.408Z,25.77
2019-03-20T15:15:50.257Z,25.77
2019-03-20T15:18:20.139Z,26.30
2019-03-20T15:20:49.056Z,26.00
2019-03-20T15:23:17.987Z,25.90
2019-03-20T15:25:47.025Z,25.73
2019-03-20T15:28:17.139Z,30.90
2019-03-20T15:30:47.483Z,28.40
2019-03-20T15:33:16.620Z,38.93
2019-03-20T15:35:51.295Z,27.90
2019-03-20T15:38:21.043Z,27.97
2019-03-20T15:40:56.383Z,27.13
2019-03-20T15:43:23.513Z,25.40
2019-03-20T15:45:52.590Z,27.07
2019-03-20T15:48:21.358Z,26.40
2019-03-20T15:50:50.225Z,25.70
2019-03-20T15:53:20.011Z,25.27
2019-03-20T15:55:48.956Z,26.37
2019-03-20T15:58:17.733Z,25.70
2019-03-20T16:00:46.752Z,28.00
2019-03-20T16:03:16.806Z,27.97
2019-03-20T16:05:45.695Z,26.00
2019-03-20T16:08:15.534Z,26.57
2019-03-20T16:10:44.439Z,25.50
2019-03-20T16:13:13.516Z,27.10
2019-03-20T16:15:42.287Z,25.87
2019-03-20T16:18:11.839Z,26.30
2019-03-20T16:20:41.159Z,25.73
2019-03-20T16:23:11.339Z,27.40
2019-03-20T16:25:40.536Z,26.60
2019-03-20T16:28:09.484Z,26.80
2019-03-20T16:30:38.837Z,27.50
2019-03-20T16:33:07.771Z,26.70
2019-03-20T16:35:36.893Z,26.50
2019-03-20T16:38:07.065Z,26.20
2019-03-20T16:40:36.524Z,25.57
2019-03-20T16:43:05.774Z,25.53
2019-03-20T16:45:34.842Z,26.37
2019-03-20T16:48:04.286Z,25.90
2019-03-20T16:50:33.149Z,25.67
2019-03-20T16:53:02.600Z,25.03
2019-03-20T16:55:31.504Z,26.80
2019-03-20T16:58:00.459Z,25.40
2019-03-20T17:00:29.564Z,26.87
2019-03-20T17:02:58.531Z,29.20
2019-03-20T17:05:28.435Z,27.03
2019-03-20T17:07:57.331Z,25.20
2019-03-20T17:10:31.403Z,27.03
2019-03-20T17:13:00.227Z,25.27
2019-03-20T17:15:29.750Z,26.00
2019-03-20T17:17:58.668Z,27.07
2019-03-20T17:20:27.778Z,26.53
2019-03-20T17:22:56.790Z,28.00
2019-03-20T17:25:25.725Z,26.40
2019-03-20T17:27:54.640Z,28.57
2019-03-20T17:30:25.729Z,26.67
2019-03-20T17:32:54.962Z,30.70
2019-03-20T17:35:23.996Z,28.90
2019-03-20T17:37:53.093Z,33.70
2019-03-20T17:40:21.903Z,27.50
2019-03-20T17:42:51.088Z,26.43
2019-03-20T17:45:20.556Z,26.37
2019-03-20T17:47:49.847Z,27.33
2019-03-20T17:50:21.048Z,26.00
2019-03-20T17:52:50.454Z,27.40
2019-03-20T17:55:20.301Z,42.57
2019-03-20T17:57:49.565Z,31.33
2019-03-20T18:00:34.434Z,27.27
2019-03-20T18:03:03.282Z,27.13
2019-03-20T18:05:32.264Z,25.77
2019-03-20T18:08:01.036Z,26.63
2019-03-20T18:10:29.810Z,27.53
2019-03-20T18:12:59.004Z,26.97
2019-03-20T18:15:27.900Z,26.47
2019-03-20T18:17:57.105Z,27.27
2019-03-20T18:20:25.969Z,27.30
2019-03-20T18:22:54.935Z,26.40
2019-03-20T18:25:24.734Z,30.20
2019-03-20T18:27:53.621Z,26.57
2019-03-20T18:30:23.294Z,26.70
2019-03-20T18:32:52.336Z,27.00
2019-03-20T18:35:21.120Z,26.00
2019-03-20T18:37:50.435Z,26.77
2019-03-20T18:40:21.333Z,29.17
2019-03-20T18:42:50.643Z,26.70
2019-03-20T18:45:20.054Z,29.83
2019-03-20T18:47:49.036Z,28.63
2019-03-20T18:50:18.741Z,27.50
2019-03-20T18:52:48.056Z,27.77
2019-03-20T18:55:17.907Z,26.30
2019-03-20T18:57:46.847Z,29.47
2019-03-20T19:00:20.917Z,29.00
2019-03-20T19:02:50.601Z,30.17
2019-03-20T19:05:25.729Z,27.27
2019-03-20T19:07:54.647Z,28.40
2019-03-20T19:10:23.533Z,27.70
2019-03-20T19:12:52.350Z,27.20
2019-03-20T19:15:21.155Z,27.30
2019-03-20T19:17:50.019Z,27.50
2019-03-20T19:20:20.035Z,26.77
2019-03-20T19:22:49.012Z,26.30
2019-03-20T19:25:17.945Z,25.90
2019-03-20T19:27:47.647Z,28.90
2019-03-20T19:30:18.614Z,26.80
2019-03-20T19:32:47.387Z,26.80
2019-03-20T19:35:16.446Z,27.03
2019-03-20T19:37:45.276Z,26.00
2019-03-20T19:40:14.893Z,26.10
2019-03-20T19:42:43.650Z,25.47
2019-03-20T19:45:12.727Z,26.20
2019-03-20T19:47:42.128Z,25.57
2019-03-20T19:50:12.632Z,24.80
2019-03-20T19:52:41.824Z,33.00
2019-03-20T19:55:11.231Z,27.73
2019-03-20T19:57:40.127Z,25.57
2019-03-20T20:00:12.344Z,25.30
2019-03-20T20:02:41.253Z,26.70
2019-03-20T20:05:15.611Z,24.53
2019-03-20T20:07:41.362Z,26.63
2019-03-20T20:10:11.639Z,25.93
2019-03-20T20:12:40.423Z,27.00
2019-03-20T20:15:13.244Z,25.90
2019-03-20T20:17:42.463Z,25.40
2019-03-20T20:20:13.256Z,27.03
2019-03-20T20:22:42.142Z,27.77
2019-03-20T20:25:11.108Z,26.03
2019-03-20T20:27:40.183Z,25.30
2019-03-20T20:30:12.340Z,25.87
2019-03-20T20:32:41.128Z,25.00
2019-03-20T20:35:10.104Z,24.70
2019-03-20T20:37:38.928Z,24.50
2019-03-20T20:40:09.046Z,26.07
2019-03-20T20:42:42.852Z,24.77
2019-03-20T20:45:08.860Z,25.40
2019-03-20T20:47:37.699Z,26.37
2019-03-20T20:50:06.943Z,24.73
2019-03-20T20:52:36.703Z,24.93
2019-03-20T20:55:06.533Z,24.40
2019-03-20T20:57:35.476Z,25.33
2019-03-20T21:00:06.403Z,26.30
2019-03-20T21:02:35.587Z,25.07
2019-03-20T21:05:05.191Z,24.60
2019-03-20T21:07:33.999Z,27.10
2019-03-20T21:10:03.074Z,24.50
2019-03-20T21:12:31.940Z,25.83
2019-03-20T21:15:00.782Z,25.63
2019-03-20T21:17:42.855Z,23.70
2019-03-20T21:20:12.262Z,23.67
2019-03-20T21:23:27.725Z,25.83
2019-03-20T21:25:59.010Z,24.50
2019-03-20T21:29:17.351Z,25.33
2019-03-20T21:32:06.702Z,24.60
2019-03-20T21:35:24.027Z,25.03
2019-03-20T21:38:04.308Z,24.97
2019-03-20T21:41:12.580Z,26.53
2019-03-20T21:44:15.578Z,25.60
2019-03-20T21:47:23.355Z,24.67
2019-03-20T21:49:52.776Z,24.83
2019-03-20T21:52:22.212Z,24.23
2019-03-20T21:55:28.499Z,25.77
2019-03-20T21:58:03.398Z,25.93
2019-03-20T22:01:09.668Z,26.10
2019-03-20T22:03:39.320Z,25.60
2019-03-20T22:06:54.842Z,25.00
2019-03-20T22:09:46.506Z,25.10
2019-03-20T22:12:29.032Z,24.70
2019-03-20T22:15:09.377Z,24.80
2019-03-20T22:18:32.761Z,24.23
2019-03-20T22:21:11.858Z,26.97
2019-03-20T22:24:16.087Z,25.80
2019-03-20T22:27:08.239Z,25.63
2019-03-20T22:29:37.612Z,26.10
2019-03-20T22:32:51.162Z,25.13
2019-03-20T22:35:49.376Z,25.60
2019-03-20T22:39:15.466Z,26.10
2019-03-20T22:42:10.148Z,27.70
2019-03-20T22:45:10.187Z,24.40
2019-03-20T22:48:22.443Z,25.77
2019-03-20T22:51:04.083Z,25.82
2019-03-20T22:54:11.081Z,26.60
2019-03-20T22:57:04.306Z,25.90
2019-03-20T22:59:33.930Z,25.53
2019-03-20T23:02:14.255Z,25.05
2019-03-20T23:04:46.876Z,26.23
2019-03-20T23:07:16.201Z,23.40
2019-03-20T23:09:45.613Z,24.03
2019-03-20T23:12:17.879Z,25.50
2019-03-20T23:14:47.319Z,23.43
2019-03-20T23:17:17.246Z,23.77
2019-03-20T23:19:47.186Z,28.53
2019-03-20T23:22:16.551Z,24.57
2019-03-20T23:24:46.911Z,24.35
2019-03-20T23:27:22.790Z,25.00
2019-03-20T23:29:52.551Z,24.53
2019-03-20T23:32:22.172Z,23.43
2019-03-20T23:34:51.982Z,23.80
2019-03-20T23:37:21.384Z,25.17
2019-03-20T23:39:50.685Z,24.63
2019-03-20T23:42:20.725Z,23.37
2019-03-20T23:44:50.305Z,23.60
2019-03-20T23:47:25.563Z,23.47
2019-03-20T23:49:54.811Z,22.40
2019-03-20T23:52:24.292Z,21.40
2019-03-20T23:54:55.407Z,23.00
2019-03-20T23:57:24.755Z,22.03
2019-03-20T23:59:55.496Z,21.87
